Time;durP1;ratioP1;P1;durP2;ratioP2;P2;SDS_P1;SDS_P2;PMS_P1;PMS_P2;Temp;Humidity;BMP_temperature;BMP_pressure;BME280_temperature;BME280_humidity;BME280_pressure;Samples;Min_cycle;Max_cycle;Signal;HPM_P1;HPM_P2
2022/05/19 00:01:15;;;;;;;12.80;10.40;;;;;;;4.96;56.52;98998.21;105975;1274;25428;-86
2022/05/19 00:03:43;;;;;;;8.80;6.20;;;;;;;4.95;57.12;98995.80;105903;1274;22733;-87
2022/05/19 00:06:11;;;;;;;10.90;6.60;;;;;;;4.94;57.09;98993.90;105760;1275;24286;-86
2022/05/19 00:08:39;;;;;;;8.60;6.50;;;;;;;4.95;57.33;98997.66;105804;1276;22604;-86
2022/05/19 00:11:16;;;;;;;11.90;7.10;;;;;;;4.88;57.45;98999.64;105900;1274;23756;-91
2022/05/19 00:13:44;;;;;;;8.30;7.40;;;;;;;4.89;57.14;98997.48;106409;1274;22597;-85
2022/05/19 00:16:12;;;;;;;11.30;7.80;;;;;;;4.93;58.17;99001.19;108792;1274;22502;-79
2022/05/19 00:18:40;;;;;;;8.50;7.60;;;;;;;4.90;57.75;98999.31;108972;1274;22707;-83
2022/05/19 00:21:08;;;;;;;12.50;7.70;;;;;;;4.89;58.06;99000.48;108841;1274;22602;-81
2022/05/19 00:23:36;;;;;;;7.80;6.30;;;;;;;4.85;57.87;99001.83;106950;1274;24450;-89
2022/05/19 00:26:04;;;;;;;12.20;6.40;;;;;;;4.94;57.71;98999.23;106047;1274;22719;-87
2022/05/19 00:28:32;;;;;;;10.30;6.70;;;;;;;5.00;57.79;98998.67;106001;1275;22627;-87
2022/05/19 00:31:00;;;;;;;10.00;7.00;;;;;;;5.10;57.86;99001.55;106739;1274;22735;-85
2022/05/19 00:33:28;;;;;;;10.60;6.70;;;;;;;5.23;57.52;99003.31;107828;1275;22572;-87
2022/05/19 00:35:56;;;;;;;13.00;6.90;;;;;;;5.27;57.74;98999.33;106960;1274;22723;-87
2022/05/19 00:38:24;;;;;;;8.30;6.30;;;;;;;5.34;57.84;98996.53;105979;1274;22544;-79
2022/05/19 00:40:58;;;;;;;19.80;7.70;;;;;;;5.55;59.50;98993.50;105871;1275;25477;-85
2022/05/19 00:43:32;;;;;;;8.90;6.10;;;;;;;5.93;58.01;98990.84;105964;1275;25445;-83
2022/05/19 00:46:12;;;;;;;12.30;8.00;;;;;;;5.96;56.93;98988.11;105965;1275;22586;-84
2022/05/19 00:48:49;;;;;;;8.90;7.10;;;;;;;5.91;56.57;98984.64;105947;1275;25405;-83
2022/05/19 00:51:21;;;;;;;12.50;10.30;;;;;;;5.82;56.60;98988.17;105862;1274;22632;-84
2022/05/19 00:53:54;;;;;;;10.10;7.00;;;;;;;5.76;56.60;98989.13;105866;1276;22624;-87
2022/05/19 00:56:51;;;;;;;10.80;7.00;;;;;;;5.70;56.24;98985.91;105786;1275;23981;-85
2022/05/19 00:59:26;;;;;;;7.90;6.60;;;;;;;5.63;56.15;98990.92;105864;1275;22655;-85
2022/05/19 01:01:55;;;;;;;;;;;;;;;5.64;55.93;98993.25;105922;1274;24317;-85
2022/05/19 01:04:23;;;;;;;10.50;6.40;;;;;;;5.57;55.83;98994.02;105943;1274;22554;-80
2022/05/19 01:06:56;;;;;;;8.40;6.00;;;;;;;5.68;56.71;98991.55;105810;1275;22913;-86
2022/05/19 01:09:24;;;;;;;9.90;8.10;;;;;;;5.74;56.20;98993.27;105882;1275;22692;-86
2022/05/19 01:11:55;;;;;;;9.30;7.80;;;;;;;5.64;55.89;98992.66;106094;1274;23934;-85
2022/05/19 01:14:24;;;;;;;9.60;7.10;;;;;;;5.46;56.17;98990.45;106237;1274;22493;-85
2022/05/19 01:16:52;;;;;;;9.00;6.90;;;;;;;5.32;56.26;98992.27;107803;1274;22565;-87
2022/05/19 01:19:43;;;;;;;8.80;5.80;;;;;;;5.17;56.91;98994.27;105911;1275;22751;-86
2022/05/19 01:22:28;;;;;;;18.20;8.50;;;;;;;5.02;56.88;98994.40;106248;1274;22570;-85
2022/05/19 01:25:31;;;;;;;10.20;7.50;;;;;;;4.99;57.05;98993.84;105884;1274;23747;-85
2022/05/19 01:27:59;;;;;;;9.90;6.70;;;;;;;4.98;56.99;98991.77;105788;1274;24954;-85
2022/05/19 01:30:27;;;;;;;9.80;8.80;;;;;;;4.97;57.22;98990.61;105885;1274;25330;-85
2022/05/19 01:32:59;;;;;;;10.40;8.00;;;;;;;4.90;57.09;98987.20;105903;1275;22566;-84
2022/05/19 01:35:33;;;;;;;9.10;6.30;;;;;;;4.81;57.28;98985.30;105864;1274;22559;-84
2022/05/19 01:38:05;;;;;;;12.00;9.80;;;;;;;4.73;57.24;98984.38;105756;1275;22640;-82
2022/05/19 01:41:01;;;;;;;9.80;8.00;;;;;;;4.71;57.20;98981.52;105807;1276;25257;-84
2022/05/19 01:44:05;;;;;;;10.10;6.60;;;;;;;4.70;57.97;98987.46;105930;1274;24402;-84
2022/05/19 01:46:37;;;;;;;10.80;6.20;;;;;;;4.63;58.51;98988.95;106510;1274;26504;-80
2022/05/19 01:49:16;;;;;;;8.20;6.50;;;;;;;4.53;59.20;98988.90;105940;1274;24226;-83
2022/05/19 01:52:06;;;;;;;8.50;5.60;;;;;;;4.45;59.32;98989.73;105885;1275;24073;-83
2022/05/19 01:54:48;;;;;;;9.20;6.40;;;;;;;4.40;60.26;98983.99;106024;1275;22695;-84
2022/05/19 01:57:27;;;;;;;8.60;6.90;;;;;;;4.33;60.56;98983.91;105916;1274;25236;-84
2022/05/19 02:00:09;;;;;;;9.80;6.60;;;;;;;4.26;60.83;98977.33;105928;1275;24474;-83
2022/05/19 02:02:48;;;;;;;11.60;7.30;;;;;;;4.19;61.02;98980.97;106004;1274;24377;-82
2022/05/19 02:05:35;;;;;;;11.20;9.80;;;;;;;4.14;61.49;98980.73;105749;1273;22666;-83
2022/05/19 02:08:07;;;;;;;10.20;8.30;;;;;;;4.09;61.08;98980.51;105979;1274;22619;-83
2022/05/19 02:10:41;;;;;;;10.00;7.60;;;;;;;4.13;60.40;98979.11;105772;1274;22588;-84
2022/05/19 02:13:09;;;;;;;14.80;13.30;;;;;;;4.25;60.30;98980.45;105761;1274;22571;-82
2022/05/19 02:15:41;;;;;;;10.10;8.70;;;;;;;4.39;60.13;98977.69;105769;1274;22718;-84
2022/05/19 02:18:09;;;;;;;9.90;8.90;;;;;;;4.42;60.88;98977.75;105763;1274;24114;-84
2022/05/19 02:20:39;;;;;;;9.40;7.60;;;;;;;4.33;61.11;98975.36;105800;1274;22584;-86
2022/05/19 02:23:09;;;;;;;8.00;6.30;;;;;;;4.23;61.19;98972.09;105764;1274;24230;-86
2022/05/19 02:25:43;;;;;;;8.40;7.30;;;;;;;4.12;60.82;98974.44;105765;1274;25244;-86
2022/05/19 02:28:17;;;;;;;9.90;7.30;;;;;;;4.09;60.37;98972.98;105767;1274;22558;-86
2022/05/19 02:30:45;;;;;;;9.70;6.10;;;;;;;4.05;60.27;98971.34;105872;1275;23303;-85
2022/05/19 02:33:15;;;;;;;23.30;20.50;;;;;;;3.99;60.81;98971.37;105769;1276;26740;-85
2022/05/19 02:35:44;;;;;;;9.30;6.70;;;;;;;3.93;60.50;98974.30;105783;1276;25390;-85
2022/05/19 02:38:14;;;;;;;9.60;7.30;;;;;;;3.81;61.37;98974.59;105952;1274;22850;-81
2022/05/19 02:40:43;;;;;;;19.50;17.60;;;;;;;3.76;61.37;98971.41;105852;1276;24440;-81
2022/05/19 02:43:13;;;;;;;15.80;14.20;;;;;;;3.75;61.29;98972.25;105813;1276;23467;-82
2022/05/19 02:45:44;;;;;;;13.10;10.20;;;;;;;3.73;61.34;98971.71;105843;1276;22551;-80
2022/05/19 02:48:15;;;;;;;11.00;9.20;;;;;;;3.77;61.33;98970.39;105766;1274;24230;-81
2022/05/19 02:50:45;;;;;;;9.30;7.00;;;;;;;3.83;61.34;98972.67;105811;1274;22720;-82
2022/05/19 02:53:13;;;;;;;7.40;6.60;;;;;;;3.87;61.25;98969.13;105851;1274;22585;-83
2022/05/19 02:55:42;;;;;;;9.10;6.50;;;;;;;3.86;62.09;98972.84;106086;1274;22605;-82
2022/05/19 02:58:12;;;;;;;7.90;6.00;;;;;;;3.78;62.52;98970.66;106099;1275;25422;-82
2022/05/19 03:00:43;;;;;;;12.90;8.20;;;;;;;3.74;63.25;98970.64;105975;1274;22554;-84
2022/05/19 03:03:11;;;;;;;17.70;9.80;;;;;;;3.74;62.84;98968.02;105908;1274;24411;-82
2022/05/19 03:05:40;;;;;;;9.00;8.10;;;;;;;3.80;62.52;98964.85;105963;1274;22564;-82
2022/05/19 03:08:09;;;;;;;9.40;6.50;;;;;;;3.84;62.79;98960.10;105905;1276;22689;-83
2022/05/19 03:10:39;;;;;;;19.20;6.40;;;;;;;3.82;63.02;98961.45;106215;1274;24075;-83
2022/05/19 03:13:18;;;;;;;13.50;7.10;;;;;;;3.83;63.32;98971.08;106437;1274;22577;-82
2022/05/19 03:15:47;;;;;;;11.10;6.30;;;;;;;3.79;63.50;98970.05;109516;1274;22915;-82
2022/05/19 03:18:15;;;;;;;8.10;6.80;;;;;;;3.82;63.28;98967.41;109437;1275;22670;-81
2022/05/19 03:20:43;;;;;;;9.50;8.00;;;;;;;3.91;62.92;98969.40;105723;1274;25316;-82
2022/05/19 03:23:11;;;;;;;12.70;8.50;;;;;;;4.04;62.80;98968.70;106077;1274;23962;-82
2022/05/19 03:25:39;;;;;;;11.90;8.70;;;;;;;4.17;62.71;98968.95;106169;1275;25316;-82
2022/05/19 03:28:12;;;;;;;9.40;6.80;;;;;;;4.31;62.58;98970.18;105918;1274;22686;-82
2022/05/19 03:30:40;;;;;;;8.50;7.40;;;;;;;4.37;62.22;98972.95;105964;1274;24468;-82
2022/05/19 03:33:08;;;;;;;8.50;7.10;;;;;;;4.31;62.20;98969.77;105991;1274;23942;-82
2022/05/19 03:35:36;;;;;;;11.10;7.50;;;;;;;4.26;63.13;98971.41;105700;1277;23268;-83
2022/05/19 03:38:05;;;;;;;11.90;7.50;;;;;;;4.23;63.51;98975.28;105718;1274;22807;-81
2022/05/19 03:40:32;;;;;;;12.00;9.20;;;;;;;4.27;62.96;98972.02;105782;1274;26726;-81
2022/05/19 03:43:00;;;;;;;7.70;6.90;;;;;;;4.42;62.89;98971.30;105736;1277;25256;-82
2022/05/19 03:45:29;;;;;;;11.30;7.00;;;;;;;4.64;62.67;98972.86;105836;1275;22563;-82
2022/05/19 03:47:56;;;;;;;11.90;6.70;;;;;;;4.86;62.66;98965.15;105931;1275;25382;-86
2022/05/19 03:50:24;;;;;;;16.70;7.40;;;;;;;5.06;62.48;98966.52;105777;1274;22621;-86
2022/05/19 03:52:53;;;;;;;10.30;6.60;;;;;;;5.25;62.08;98964.22;105775;1274;24238;-86
2022/05/19 03:55:24;;;;;;;8.70;6.60;;;;;;;5.44;62.30;98964.80;105756;1274;22694;-88
2022/05/19 03:57:54;;;;;;;8.90;6.10;;;;;;;5.61;61.96;98963.30;105811;1274;25394;-86
2022/05/19 04:00:23;;;;;;;10.70;7.50;;;;;;;5.80;61.97;98964.07;105936;1274;22576;-88
2022/05/19 04:02:51;;;;;;;10.60;7.70;;;;;;;5.93;61.38;98972.43;105876;1274;22621;-86
2022/05/19 04:05:28;;;;;;;11.40;8.10;;;;;;;5.96;61.27;98974.69;105930;1274;22554;-84
2022/05/19 04:07:56;;;;;;;10.80;6.60;;;;;;;6.03;61.40;98973.15;105850;1274;22623;-89
2022/05/19 04:10:24;;;;;;;11.70;6.10;;;;;;;6.14;61.19;98970.75;105867;1274;23996;-86
2022/05/19 04:12:52;;;;;;;12.20;6.50;;;;;;;6.25;61.26;98971.67;105970;1274;24460;-87
2022/05/19 04:15:20;;;;;;;24.20;18.30;;;;;;;6.39;61.08;98971.67;106188;1274;22574;-86
2022/05/19 04:17:48;;;;;;;13.80;12.30;;;;;;;6.51;60.96;98971.48;105961;1276;22664;-86
2022/05/19 04:20:16;;;;;;;12.90;10.10;;;;;;;6.64;60.79;98970.80;106179;1274;22625;-87
2022/05/19 04:22:44;;;;;;;12.60;10.00;;;;;;;6.75;60.63;98975.78;106383;1274;22638;-83
2022/05/19 04:25:12;;;;;;;12.50;8.30;;;;;;;6.85;60.53;98976.06;106183;1274;24006;-87
2022/05/19 04:27:40;;;;;;;17.10;10.70;;;;;;;6.92;60.45;98971.83;106203;1274;22688;-85
2022/05/19 04:30:09;;;;;;;13.20;10.50;;;;;;;7.01;60.50;98970.34;106313;1274;22646;-85
2022/05/19 04:32:45;;;;;;;13.00;9.90;;;;;;;7.13;60.48;98973.16;106227;1274;22656;-87
2022/05/19 04:35:14;;;;;;;14.40;10.30;;;;;;;7.26;60.59;98975.77;106471;1274;22589;-82
2022/05/19 04:37:42;;;;;;;15.70;10.20;;;;;;;7.41;60.43;98978.52;107033;1274;22614;-86
2022/05/19 04:40:11;;;;;;;16.40;9.90;;;;;;;7.55;60.28;98980.61;106534;1274;22888;-87
2022/05/19 04:42:39;;;;;;;20.50;9.60;;;;;;;7.68;60.22;98981.02;106335;1274;24237;-85
2022/05/19 04:45:11;;;;;;;14.70;9.90;;;;;;;7.83;60.38;98983.46;106446;1274;25847;-83
2022/05/19 04:47:41;;;;;;;16.80;9.70;;;;;;;7.99;60.39;98986.49;105981;1274;25262;-84
2022/05/19 04:50:10;;;;;;;13.50;9.30;;;;;;;8.15;60.22;98988.42;106143;1274;22550;-82
2022/05/19 04:52:38;;;;;;;12.00;9.40;;;;;;;8.33;59.92;98988.45;106108;1274;22554;-83
2022/05/19 04:55:07;;;;;;;15.60;9.40;;;;;;;8.50;60.04;98987.42;106225;1274;22635;-82
2022/05/19 04:57:37;;;;;;;17.10;7.90;;;;;;;8.69;60.10;98983.08;106028;1274;25174;-83
2022/05/19 05:00:07;;;;;;;13.80;7.10;;;;;;;8.90;59.58;98984.02;106306;1274;22605;-84
2022/05/19 05:02:35;;;;;;;11.40;6.60;;;;;;;9.14;59.49;98983.48;106445;1274;22551;-85
2022/05/19 05:05:05;;;;;;;10.70;5.90;;;;;;;9.36;59.06;98980.54;105959;1274;22580;-87
2022/05/19 05:07:33;;;;;;;12.20;6.40;;;;;;;9.58;58.91;98977.39;105889;1275;24267;-85
2022/05/19 05:10:02;;;;;;;11.50;5.70;;;;;;;9.78;58.65;98977.20;106012;1274;25368;-86
2022/05/19 05:12:30;;;;;;;7.90;5.20;;;;;;;9.96;57.97;98974.59;106030;1274;24278;-83
2022/05/19 05:14:58;;;;;;;12.90;6.40;;;;;;;10.16;57.52;98976.48;105974;1274;22642;-86
2022/05/19 05:17:26;;;;;;;8.80;5.90;;;;;;;10.35;57.33;98974.45;105917;1274;22744;-85
2022/05/19 05:19:54;;;;;;;10.70;6.20;;;;;;;10.54;56.78;98976.39;106338;1274;23974;-83
2022/05/19 05:22:22;;;;;;;6.50;5.60;;;;;;;10.71;56.52;98976.73;105846;1277;23976;-88
2022/05/19 05:24:50;;;;;;;8.60;5.80;;;;;;;10.88;56.24;98977.08;106161;1274;24224;-86
2022/05/19 05:27:18;;;;;;;8.60;5.60;;;;;;;11.05;55.44;98977.01;105910;1274;24715;-85
2022/05/19 05:29:46;;;;;;;8.20;5.50;;;;;;;11.19;55.30;98983.48;106175;1274;22589;-86
2022/05/19 05:32:14;;;;;;;9.80;6.30;;;;;;;11.33;54.98;98986.72;105878;1276;25274;-85
2022/05/19 05:34:42;;;;;;;9.50;5.80;;;;;;;11.49;55.18;98985.56;105936;1274;22592;-85
2022/05/19 05:37:09;;;;;;;9.20;5.90;;;;;;;11.62;54.81;98983.34;105901;1274;25240;-84
2022/05/19 05:39:37;;;;;;;8.60;5.60;;;;;;;11.77;54.99;98986.87;105955;1274;22618;-85
2022/05/19 05:42:06;;;;;;;9.30;6.20;;;;;;;11.88;54.27;98982.08;105966;1274;23778;-84
2022/05/19 05:44:34;;;;;;;8.70;5.80;;;;;;;12.00;54.28;98982.97;105994;1274;23992;-82
2022/05/19 05:47:02;;;;;;;14.30;6.30;;;;;;;12.13;54.27;98984.96;105900;1274;23115;-84
2022/05/19 05:49:30;;;;;;;8.50;5.40;;;;;;;12.29;53.51;98986.95;105999;1275;24406;-82
2022/05/19 05:51:58;;;;;;;8.50;5.50;;;;;;;12.44;53.72;98989.75;105991;1274;24288;-84
2022/05/19 05:54:26;;;;;;;7.80;5.20;;;;;;;12.59;53.23;98987.88;106036;1275;23975;-87
2022/05/19 05:56:55;;;;;;;10.90;4.90;;;;;;;12.75;53.12;98986.20;107101;1274;22487;-85
2022/05/19 05:59:23;;;;;;;7.30;5.60;;;;;;;12.87;52.83;98981.80;108073;1274;22839;-86
2022/05/19 06:01:51;;;;;;;9.30;5.30;;;;;;;12.99;52.36;98984.17;105885;1274;23178;-87
2022/05/19 06:04:19;;;;;;;10.80;5.50;;;;;;;13.11;52.07;98988.36;105852;1273;25243;-86
2022/05/19 06:06:47;;;;;;;8.00;5.40;;;;;;;13.24;51.94;98989.95;105849;1274;25528;-85
2022/05/19 06:09:15;;;;;;;8.80;5.10;;;;;;;13.37;51.49;98987.36;105878;1274;25433;-84
2022/05/19 06:11:43;;;;;;;8.70;5.60;;;;;;;13.48;51.09;98989.34;105941;1275;22573;-85
2022/05/19 06:14:11;;;;;;;7.50;4.90;;;;;;;13.60;50.72;98988.46;105933;1274;25236;-86
2022/05/19 06:16:39;;;;;;;10.30;5.30;;;;;;;13.75;50.37;98989.03;106236;1275;22567;-86
2022/05/19 06:19:08;;;;;;;7.70;5.10;;;;;;;13.87;50.52;98991.73;106950;1274;22840;-85
2022/05/19 06:21:37;;;;;;;10.00;5.50;;;;;;;14.00;50.37;98990.83;106211;1274;22554;-86
2022/05/19 06:24:10;;;;;;;8.50;5.80;;;;;;;14.11;50.43;98987.35;105986;1274;24242;-88
2022/05/19 06:26:39;;;;;;;8.20;4.70;;;;;;;14.23;49.50;98986.69;105924;1274;24366;-87
2022/05/19 06:29:09;;;;;;;8.10;4.90;;;;;;;14.36;49.81;98988.92;106081;1275;24252;-85
2022/05/19 06:31:37;;;;;;;9.90;5.20;;;;;;;14.49;48.71;98990.92;106259;1274;22705;-85
2022/05/19 06:34:05;;;;;;;10.90;4.60;;;;;;;14.59;48.81;98988.13;105907;1274;22601;-86
2022/05/19 06:36:33;;;;;;;13.30;5.00;;;;;;;14.69;48.87;98984.99;105805;1274;25359;-85
2022/05/19 06:39:01;;;;;;;8.60;4.80;;;;;;;14.81;48.01;98986.30;105816;1274;22565;-86
2022/05/19 06:44:17;;;;;;;9.40;4.70;;;;;;;15.05;47.48;98990.52;106147;1274;24445;-88
2022/05/19 06:46:46;;;;;;;18.20;5.00;;;;;;;15.13;47.05;98992.70;106506;1274;22712;-83
2022/05/19 06:49:17;;;;;;;8.20;5.10;;;;;;;15.19;47.42;98990.02;108796;1274;22675;-83
2022/05/19 06:51:45;;;;;;;12.60;5.30;;;;;;;15.33;47.46;98985.29;107742;1274;22708;-85
2022/05/19 06:54:20;;;;;;;12.30;5.00;;;;;;;15.50;46.93;98986.67;108356;1276;22556;-83
2022/05/19 06:56:47;;;;;;;7.90;4.50;;;;;;;15.60;45.85;98988.25;106529;1274;24353;-86
2022/05/19 06:59:16;;;;;;;10.40;4.70;;;;;;;15.71;45.99;98986.45;106296;1274;25360;-85
2022/05/19 07:01:45;;;;;;;10.60;4.80;;;;;;;15.84;46.19;98984.31;106336;1274;27238;-85
2022/05/19 07:04:40;;;;;;;7.90;5.00;;;;;;;16.02;46.34;98985.26;106344;1274;22648;-85
2022/05/19 07:07:07;;;;;;;9.70;4.80;;;;;;;16.24;45.99;98987.63;106454;1274;24227;-85
2022/05/19 07:09:37;;;;;;;8.00;4.50;;;;;;;16.38;45.51;98991.20;106495;1274;22564;-85
2022/05/19 07:12:07;;;;;;;7.80;4.20;;;;;;;16.44;44.84;98986.31;106184;1274;25405;-86
2022/05/19 07:14:37;;;;;;;7.90;3.40;;;;;;;16.56;44.78;98983.46;106366;1275;25302;-85
2022/05/19 07:17:05;;;;;;;6.70;3.80;;;;;;;16.72;43.37;98982.77;106260;1274;22566;-85
2022/05/19 07:22:40;;;;;;;10.10;3.90;;;;;;;16.97;43.52;98983.10;105747;1275;22671;-83
2022/05/19 07:25:08;;;;;;;8.90;4.00;;;;;;;17.14;43.18;98983.66;105870;1274;24227;-80
2022/05/19 07:27:36;;;;;;;9.80;4.50;;;;;;;17.25;40.11;98982.65;105983;1274;22606;-78
2022/05/19 07:30:05;;;;;;;8.30;4.50;;;;;;;17.31;40.05;98979.04;106064;1274;22564;-79
2022/05/19 07:32:33;;;;;;;7.60;3.80;;;;;;;17.45;39.01;98985.68;106247;1274;24266;-79
2022/05/19 07:35:03;;;;;;;7.90;3.30;;;;;;;17.55;36.80;98985.00;106129;1274;24502;-79
2022/05/19 07:37:31;;;;;;;11.90;4.00;;;;;;;17.54;36.65;98980.96;106049;1274;22546;-78
2022/05/19 07:39:59;;;;;;;7.90;3.60;;;;;;;17.57;35.93;98979.65;106029;1274;22567;-78
2022/05/19 07:42:26;;;;;;;5.90;4.40;;;;;;;17.62;36.24;98977.09;106059;1274;22559;-78
2022/05/19 07:44:55;;;;;;;8.20;4.20;;;;;;;17.75;36.87;98972.85;106132;1274;22628;-78
2022/05/19 07:47:23;;;;;;;6.50;3.50;;;;;;;17.89;36.78;98967.51;106275;1274;22865;-79
2022/05/19 07:49:54;;;;;;;8.90;4.40;;;;;;;18.03;36.85;98969.00;106140;1274;22865;-79
2022/05/19 07:52:26;;;;;;;6.70;4.20;;;;;;;18.17;35.72;98966.86;106163;1274;22550;-79
2022/05/19 07:54:54;;;;;;;8.90;4.50;;;;;;;18.26;34.85;98968.48;106148;1274;22584;-79
2022/05/19 07:57:23;;;;;;;8.80;4.10;;;;;;;18.36;35.20;98968.54;106110;1274;22625;-78
2022/05/19 07:59:51;;;;;;;7.90;3.80;;;;;;;18.47;34.32;98963.54;105997;1274;22709;-77
2022/05/19 08:02:19;;;;;;;7.40;3.50;;;;;;;18.49;33.78;98959.83;106100;1274;22578;-80
2022/05/19 08:04:47;;;;;;;10.20;3.90;;;;;;;18.50;33.55;98960.87;106239;1274;24414;-81
2022/05/19 08:07:15;;;;;;;9.20;3.50;;;;;;;18.53;31.59;98965.30;106290;1274;25348;-80
2022/05/19 08:15:36;;;;;;;10.80;3.70;;;;;;;18.60;31.80;98962.02;106545;1274;22636;-79
2022/05/19 08:18:17;;;;;;;6.60;3.00;;;;;;;18.68;31.06;98961.61;106239;1274;22579;-79
2022/05/19 08:20:55;;;;;;;8.80;4.00;;;;;;;18.70;29.94;98958.42;106211;1274;24519;-80
2022/05/19 08:23:29;;;;;;;10.30;3.30;;;;;;;18.74;30.34;98962.61;106215;1274;22531;-79
2022/05/19 08:25:58;;;;;;;7.50;3.60;;;;;;;18.76;29.60;98955.06;106294;1274;25398;-80
2022/05/19 08:28:32;;;;;;;16.20;4.60;;;;;;;18.86;29.75;98948.84;106325;1274;22626;-80
2022/05/19 08:31:13;;;;;;;12.50;4.70;;;;;;;18.96;29.73;98951.67;106290;1274;24205;-78
2022/05/19 08:33:44;;;;;;;14.40;3.50;;;;;;;19.05;29.75;98949.28;106589;1274;22633;-80
2022/05/19 08:36:12;;;;;;;10.40;3.60;;;;;;;19.12;29.74;98954.08;106557;1274;22567;-79
2022/05/19 08:38:41;;;;;;;8.90;4.20;;;;;;;19.18;29.26;98954.65;106223;1274;24324;-80
2022/05/19 08:41:35;;;;;;;6.20;3.90;;;;;;;19.26;29.33;98950.65;106279;1274;22693;-80
2022/05/19 08:44:38;;;;;;;8.90;3.60;;;;;;;19.36;29.14;98942.78;106229;1274;24469;-79
2022/05/19 08:47:08;;;;;;;16.60;3.70;;;;;;;19.43;29.02;98938.98;106171;1274;22547;-79
2022/05/19 08:49:50;;;;;;;9.90;4.40;;;;;;;19.55;29.43;98936.48;106323;1274;22576;-79
2022/05/19 08:52:22;;;;;;;10.90;5.20;;;;;;;19.71;29.27;98940.86;106092;1274;24343;-79
2022/05/19 08:54:53;;;;;;;9.60;4.70;;;;;;;19.73;28.81;98934.38;106265;1274;24384;-79
2022/05/19 08:57:39;;;;;;;10.50;4.30;;;;;;;19.85;29.00;98937.54;106243;1274;24312;-79
2022/05/19 09:00:19;;;;;;;7.90;4.30;;;;;;;19.96;29.37;98935.16;106236;1274;25447;-79
2022/05/19 09:03:09;;;;;;;16.70;4.00;;;;;;;20.09;30.03;98930.43;106144;1274;22537;-79
2022/05/19 09:06:16;;;;;;;14.70;4.70;;;;;;;20.28;28.69;98932.98;106152;1274;23456;-80
2022/05/19 09:08:59;;;;;;;12.10;4.70;;;;;;;20.42;29.11;98933.80;105640;1282;25481;-80
2022/05/19 09:11:45;;;;;;;17.30;5.80;;;;;;;20.49;28.78;98937.15;105668;1282;22573;-80
2022/05/19 09:14:25;;;;;;;7.10;3.90;;;;;;;20.50;28.73;98940.33;105709;1282;24501;-79
2022/05/19 09:17:01;;;;;;;8.00;4.20;;;;;;;20.58;29.26;98933.48;105658;1282;22696;-82
2022/05/19 09:19:51;;;;;;;11.10;3.90;;;;;;;20.79;29.01;98938.02;105585;1282;25336;-80
2022/05/19 09:22:22;;;;;;;7.30;3.90;;;;;;;20.84;28.44;98932.03;105215;1282;24412;-79
2022/05/19 09:24:52;;;;;;;6.10;3.90;;;;;;;20.84;28.44;98927.64;105588;1282;22740;-79
2022/05/19 09:27:22;;;;;;;8.30;3.90;;;;;;;20.90;28.86;98924.93;105344;1284;22556;-80
2022/05/19 09:29:56;;;;;;;7.10;3.80;;;;;;;21.07;29.11;98921.95;105457;1284;22580;-79
2022/05/19 09:32:29;;;;;;;8.20;4.60;;;;;;;21.24;29.16;98914.89;105473;1284;23961;-80
2022/05/19 09:35:25;;;;;;;11.70;6.40;;;;;;;21.37;27.69;98919.45;105408;1284;22831;-80
2022/05/19 09:38:25;;;;;;;21.90;12.00;;;;;;;21.33;27.63;98917.89;105409;1284;25260;-79
2022/05/19 09:40:59;;;;;;;22.60;10.20;;;;;;;21.31;27.47;98918.56;105451;1283;25258;-80
2022/05/19 09:43:37;;;;;;;12.30;5.70;;;;;;;21.31;27.39;98922.23;105655;1277;22582;-81
2022/05/19 09:46:09;;;;;;;14.90;5.60;;;;;;;21.28;27.29;98909.98;106223;1276;25287;-79
2022/05/19 09:48:44;;;;;;;11.50;4.00;;;;;;;21.44;27.99;98912.21;106271;1276;22898;-78
2022/05/19 09:51:14;;;;;;;6.90;3.10;;;;;;;21.67;27.97;98910.63;106289;1276;24098;-83
2022/05/19 09:53:57;;;;;;;5.50;3.40;;;;;;;21.98;28.05;98901.86;106515;1276;22551;-85
2022/05/19 09:56:37;;;;;;;6.40;3.20;;;;;;;22.10;26.17;98906.58;106294;1276;24294;-86
2022/05/19 09:59:12;;;;;;;7.50;3.00;;;;;;;21.91;25.67;98902.30;106335;1274;24409;-80
2022/05/19 10:01:45;;;;;;;6.10;3.10;;;;;;;21.90;25.91;98897.95;106473;1274;22735;-79
2022/05/19 10:04:28;;;;;;;6.70;3.00;;;;;;;21.93;25.79;98894.81;106422;1274;24257;-79
2022/05/19 10:07:08;;;;;;;10.40;3.50;;;;;;;21.96;25.07;98891.54;106355;1274;22804;-81
2022/05/19 10:09:42;;;;;;;5.80;2.80;;;;;;;22.03;25.17;98892.67;106342;1274;22563;-81
2022/05/19 10:12:13;;;;;;;5.20;2.90;;;;;;;22.04;25.35;98888.53;106244;1274;22563;-81
2022/05/19 10:14:42;;;;;;;5.00;3.00;;;;;;;22.07;24.79;98884.60;106318;1274;24379;-82
2022/05/19 10:17:15;;;;;;;4.80;2.60;;;;;;;22.07;25.33;98879.13;106372;1274;24266;-83
2022/05/19 10:20:17;;;;;;;6.30;3.00;;;;;;;22.16;24.67;98876.48;106128;1274;316779;-82
2022/05/19 10:23:14;;;;;;;11.00;3.30;;;;;;;22.17;25.08;98874.39;106343;1274;22666;-80
2022/05/19 10:25:57;;;;;;;5.50;3.10;;;;;;;22.31;24.47;98874.05;106260;1276;24290;-82
2022/05/19 10:31:51;;;;;;;8.80;3.10;;;;;;;22.61;24.86;98869.94;106320;1274;25367;-82
2022/05/19 10:34:31;;;;;;;8.70;3.40;;;;;;;22.78;25.49;98866.89;106361;1274;22557;-81
2022/05/19 10:37:10;;;;;;;9.40;3.00;;;;;;;23.10;25.30;98864.86;106418;1274;25484;-81
2022/05/19 10:40:07;;;;;;;8.00;2.90;;;;;;;23.27;25.16;98854.85;106354;1274;24438;-82
2022/05/19 10:43:11;;;;;;;7.80;2.90;;;;;;;23.30;24.74;98855.54;106152;1274;22635;-81
2022/05/19 10:45:46;;;;;;;6.30;2.90;;;;;;;23.43;24.27;98857.86;106231;1274;22628;-81
2022/05/19 10:48:34;;;;;;;7.90;2.50;;;;;;;23.25;23.57;98854.51;106188;1275;22905;-81
2022/05/19 10:51:18;;;;;;;5.40;2.40;;;;;;;23.00;24.26;98849.95;106252;1274;25401;-83
2022/05/19 10:53:52;;;;;;;7.00;2.50;;;;;;;23.13;24.65;98844.18;106178;1274;22595;-82
2022/05/19 10:56:55;;;;;;;6.60;2.90;;;;;;;23.23;24.27;98840.23;106269;1274;23381;-82
2022/05/19 10:59:35;;;;;;;12.00;3.30;;;;;;;23.46;24.56;98838.59;106009;1278;24834;-83
2022/05/19 11:02:54;;;;;;;10.80;3.30;;;;;;;23.63;24.43;98836.48;105940;1278;22737;-82
2022/05/19 11:05:39;;;;;;;6.50;2.40;;;;;;;23.83;24.60;98831.42;105350;1284;22680;-82
2022/05/19 11:08:19;;;;;;;8.50;2.90;;;;;;;24.04;24.27;98837.93;105334;1284;22526;-83
2022/05/19 11:10:54;;;;;;;9.60;2.80;;;;;;;24.08;23.68;98836.59;105515;1283;25856;-82
2022/05/19 11:13:25;;;;;;;;;;;;;;;24.10;23.94;98831.20;105362;1284;22546;-82
2022/05/19 11:16:14;;;;;;;6.10;2.50;;;;;;;24.13;22.68;98832.75;105390;1284;24237;-82
2022/05/19 11:19:07;;;;;;;8.70;3.00;;;;;;;23.97;22.52;98824.05;105345;1284;22762;-82
2022/05/19 11:22:13;;;;;;;9.80;3.00;;;;;;;24.03;22.91;98823.30;105394;1284;22552;-82
2022/05/19 11:27:54;;;;;;;6.20;2.60;;;;;;;24.55;23.20;98821.20;105485;1284;26512;-82
2022/05/19 11:30:30;;;;;;;9.20;2.20;;;;;;;24.74;23.33;98816.23;105254;1281;22578;-82
2022/05/19 11:33:02;;;;;;;10.70;2.70;;;;;;;25.02;23.43;98809.15;105555;1281;23022;-82
2022/05/19 11:35:43;;;;;;;18.80;3.40;;;;;;;25.33;23.17;98809.27;105564;1281;22686;-82
2022/05/19 11:38:41;;;;;;;9.10;2.80;;;;;;;25.36;22.44;98810.27;105503;1283;22561;-83
2022/05/19 11:41:29;;;;;;;8.00;2.60;;;;;;;25.28;22.58;98799.14;106100;1277;22629;-83
2022/05/19 11:44:28;;;;;;;7.30;2.90;;;;;;;25.36;21.70;98800.02;106158;1275;22647;-82
2022/05/19 11:47:09;;;;;;;6.90;2.90;;;;;;;25.22;21.33;98791.41;106092;1278;23418;-82
2022/05/19 11:55:33;;;;;;;6.80;2.20;;;;;;;25.71;21.18;98781.17;106091;1276;25391;-83
2022/05/19 11:58:11;;;;;;;4.20;2.40;;;;;;;25.85;21.13;98777.63;106309;1275;22710;-85
2022/05/19 12:01:03;;;;;;;9.40;2.90;;;;;;;25.97;21.35;98773.02;106370;1275;22703;-84
2022/05/19 12:03:43;;;;;;;6.90;2.20;;;;;;;26.24;21.67;98759.36;106301;1276;22544;-84
2022/05/19 12:06:16;;;;;;;12.40;2.70;;;;;;;26.54;20.96;98757.88;106394;1275;22579;-85
2022/05/19 12:08:56;;;;;;;4.70;2.00;;;;;;;26.61;19.98;98761.58;106375;1277;22553;-85
2022/05/19 12:11:52;;;;;;;5.40;2.70;;;;;;;26.57;19.55;98761.55;106305;1275;22689;-85
2022/05/19 12:14:33;;;;;;;5.30;2.10;;;;;;;26.47;19.00;98761.05;106381;1275;22555;-85
2022/05/19 12:17:32;;;;;;;5.90;2.40;;;;;;;26.25;18.26;98756.61;106206;1275;22563;-84
2022/05/19 12:20:03;;;;;;;8.00;2.80;;;;;;;26.03;18.87;98756.75;106280;1277;23789;-83